Time;durP1;ratioP1;P1;durP2;ratioP2;P2;SDS_P1;SDS_P2;PMS_P1;PMS_P2;Temp;Humidity;BMP_temperature;BMP_pressure;BME280_temperature;BME280_humidity;BME280_pressure;Samples;Min_cycle;Max_cycle;Signal;HPM_P1;HPM_P2
2023/09/08 00:02:08;;;;;;;8.20;6.28;;;;;;;19.22;100.00;100843.06;5051758;28;20033;-65
2023/09/08 00:04:33;;;;;;;9.57;5.93;;;;;;;19.32;100.00;100831.78;5051106;28;20395;-65
2023/09/08 00:06:59;;;;;;;10.90;6.43;;;;;;;19.31;100.00;100821.31;5051409;28;20029;-66
2023/09/08 00:09:24;;;;;;;9.48;5.78;;;;;;;19.41;100.00;100854.53;5051092;28;20033;-65
2023/09/08 00:11:50;;;;;;;13.57;6.38;;;;;;;19.40;100.00;100844.91;5051322;28;20020;-65
2023/09/08 00:14:15;;;;;;;12.63;6.47;;;;;;;19.07;100.00;100778.41;5032295;28;20045;-65
2023/09/08 00:16:42;;;;;;;10.02;6.45;;;;;;;19.46;100.00;100854.56;5033388;28;20032;-65
2023/09/08 00:19:09;;;;;;;12.32;6.82;;;;;;;19.59;100.00;100855.50;5050654;28;20487;-66
2023/09/08 00:21:34;;;;;;;12.88;6.38;;;;;;;19.63;100.00;100852.06;5050876;28;20504;-64
2023/09/08 00:24:00;;;;;;;8.73;5.65;;;;;;;19.67;100.00;100852.06;5050560;28;20116;-67
2023/09/08 00:26:26;;;;;;;12.55;6.30;;;;;;;19.69;100.00;100846.84;5051282;28;20079;-68
2023/09/08 00:28:52;;;;;;;9.57;5.60;;;;;;;19.79;100.00;100851.25;5050917;28;20060;-65
2023/09/08 00:31:17;;;;;;;16.85;6.72;;;;;;;19.28;100.00;100761.97;5050673;28;20036;-64
2023/09/08 00:33:43;;;;;;;11.10;6.80;;;;;;;19.79;100.00;100858.22;5050576;28;20094;-65
2023/09/08 00:36:09;;;;;;;8.70;5.90;;;;;;;19.73;100.00;100836.38;5050584;28;20025;-66
2023/09/08 00:38:35;;;;;;;12.68;6.25;;;;;;;19.78;100.00;100846.88;5050391;28;20025;-66
2023/09/08 00:41:00;;;;;;;11.75;6.68;;;;;;;19.70;100.00;100844.22;5032625;28;20061;-65
2023/09/08 00:43:26;;;;;;;9.10;6.00;;;;;;;19.41;100.00;100796.91;5050825;28;20116;-70
2023/09/08 00:45:54;;;;;;;11.40;6.45;;;;;;;19.61;100.00;100843.31;5032985;28;20029;-66
2023/09/08 00:48:20;;;;;;;10.63;6.28;;;;;;;19.09;100.00;100771.44;5051043;28;20036;-65
2023/09/08 00:50:45;;;;;;;10.27;6.78;;;;;;;19.40;100.00;100847.53;5050701;28;20047;-72
2023/09/08 00:53:11;;;;;;;11.98;6.90;;;;;;;19.46;100.00;100838.84;5050120;28;20082;-65
2023/09/08 00:55:39;;;;;;;9.75;6.88;;;;;;;19.42;100.00;100840.56;5050559;28;20033;-65
2023/09/08 00:58:04;;;;;;;12.70;6.80;;;;;;;19.39;100.00;100832.72;5050111;28;20049;-72
2023/09/08 01:00:31;;;;;;;14.45;6.70;;;;;;;19.39;100.00;100832.72;5047139;28;20033;-66
2023/09/08 01:02:57;;;;;;;10.80;6.43;;;;;;;18.68;100.00;100756.25;5050184;28;20420;-65
2023/09/08 01:05:22;;;;;;;9.95;6.60;;;;;;;19.00;100.00;100829.78;5050113;28;20055;-65
2023/09/08 01:07:48;;;;;;;13.68;7.00;;;;;;;18.98;100.00;100820.19;5049859;28;20033;-66
2023/09/08 01:10:14;;;;;;;11.30;7.05;;;;;;;18.64;100.00;100752.78;5015923;28;20017;-66
2023/09/08 01:12:40;;;;;;;13.77;6.82;;;;;;;19.17;100.00;100826.44;5050186;28;20029;-67
2023/09/08 01:15:06;;;;;;;13.82;7.10;;;;;;;18.95;100.00;100805.34;5050086;28;20025;-65
2023/09/08 01:17:31;;;;;;;11.38;6.15;;;;;;;18.76;100.00;100823.44;5014823;28;20059;-66
2023/09/08 01:20:02;;;;;;;10.23;6.43;;;;;;;18.54;100.00;100796.25;5050014;28;20024;-65
2023/09/08 01:23:01;;;;;;;13.23;7.15;;;;;;;18.85;100.00;100830.50;5032350;28;20389;-65
2023/09/08 01:25:28;;;;;;;12.02;6.68;;;;;;;18.57;100.00;100749.19;5050415;28;20060;-66
2023/09/08 01:27:55;;;;;;;10.75;6.43;;;;;;;19.03;100.00;100813.28;5049853;28;20036;-70
2023/09/08 01:30:23;;;;;;;11.10;6.55;;;;;;;19.06;100.00;100818.50;5049840;28;20052;-64
2023/09/08 01:32:50;;;;;;;11.15;6.80;;;;;;;18.83;100.00;100764.25;5049809;28;20410;-65
2023/09/08 01:35:15;;;;;;;9.15;5.88;;;;;;;19.20;100.00;100822.13;5050223;28;20029;-71
2023/09/08 01:37:44;;;;;;;10.00;5.95;;;;;;;19.05;100.00;100798.44;5049795;28;20065;-64
2023/09/08 01:40:10;;;;;;;9.50;6.53;;;;;;;18.97;100.00;100808.00;5049891;28;20120;-66
2023/09/08 01:42:36;;;;;;;9.30;5.57;;;;;;;18.70;100.00;100806.84;5050138;28;20028;-65
2023/09/08 01:45:02;;;;;;;10.60;5.60;;;;;;;18.47;100.00;100802.28;5049568;28;20033;-64
2023/09/08 01:47:29;;;;;;;10.23;5.47;;;;;;;18.25;100.00;100812.50;5050047;28;20029;-65
2023/09/08 01:49:55;;;;;;;10.50;5.22;;;;;;;18.09;100.00;100805.34;5049571;28;20028;-65
2023/09/08 01:52:20;;;;;;;10.60;5.80;;;;;;;17.93;100.00;100792.09;5049888;28;20029;-66
2023/09/08 01:54:45;;;;;;;9.00;5.47;;;;;;;17.68;100.00;100763.91;5054151;28;20029;-71
2023/09/08 01:57:11;;;;;;;9.57;6.05;;;;;;;17.81;100.00;100799.78;5054063;28;20049;-64
2023/09/08 01:59:39;;;;;;;12.23;6.00;;;;;;;17.73;100.00;100796.19;5053487;28;20021;-65
2023/09/08 02:02:06;;;;;;;8.57;5.93;;;;;;;17.55;100.00;100804.66;5053997;28;20454;-71
2023/09/08 02:04:31;;;;;;;10.98;5.80;;;;;;;17.32;100.00;100783.44;5001679;28;20120;-65
2023/09/08 02:06:57;;;;;;;8.82;5.60;;;;;;;17.50;100.00;100811.56;5053970;28;20120;-64
2023/09/08 02:09:38;;;;;;;9.98;6.07;;;;;;;17.30;100.00;100817.38;5053841;28;20082;-64
2023/09/08 02:12:04;;;;;;;10.90;6.40;;;;;;;16.78;100.00;100755.66;5053795;28;20490;-63
2023/09/08 02:14:30;;;;;;;9.13;5.95;;;;;;;16.97;100.00;100819.47;5053416;28;20032;-64
2023/09/08 02:16:56;;;;;;;11.32;6.45;;;;;;;16.97;100.00;100821.19;5053737;28;20028;-65
2023/09/08 02:19:22;;;;;;;9.48;6.10;;;;;;;17.01;100.00;100803.84;5053511;28;20024;-65
2023/09/08 02:21:47;;;;;;;11.55;6.50;;;;;;;16.55;100.00;100741.38;5034560;28;20111;-65
2023/09/08 02:24:13;;;;;;;12.63;6.10;;;;;;;17.11;100.00;100808.38;5053463;28;20044;-70
2023/09/08 02:26:39;;;;;;;11.73;6.63;;;;;;;17.20;100.00;100815.47;5053487;28;20036;-66
2023/09/08 02:29:04;;;;;;;11.35;6.53;;;;;;;17.12;100.00;100794.47;5053289;28;20025;-68
2023/09/08 02:31:30;;;;;;;11.18;6.55;;;;;;;17.24;100.00;100804.22;5053252;28;20037;-66
2023/09/08 02:33:55;;;;;;;10.43;6.63;;;;;;;17.25;100.00;100800.75;5053283;28;20024;-64
2023/09/08 02:36:25;;;;;;;10.93;6.25;;;;;;;17.51;100.00;100811.56;5053136;28;20037;-65
2023/09/08 02:38:54;;;;;;;8.70;5.97;;;;;;;17.71;100.00;100819.66;5052741;28;20025;-65
2023/09/08 02:41:19;;;;;;;8.57;6.35;;;;;;;17.72;100.00;100805.75;5052793;28;20094;-72
2023/09/08 02:43:45;;;;;;;12.38;5.93;;;;;;;17.59;100.00;100817.75;5052872;28;20029;-66
2023/09/08 02:46:10;;;;;;;11.77;6.93;;;;;;;17.60;100.00;100806.47;5052667;28;20102;-64
2023/09/08 02:48:37;;;;;;;9.77;6.70;;;;;;;17.66;100.00;100800.47;5053033;28;20068;-65
2023/09/08 02:51:03;;;;;;;10.32;5.68;;;;;;;17.61;100.00;100796.91;5052702;28;20037;-66
2023/09/08 02:53:28;;;;;;;10.27;5.90;;;;;;;17.61;100.00;100808.22;5052998;28;20032;-65
2023/09/08 02:55:58;;;;;;;9.18;5.93;;;;;;;17.72;100.00;100799.66;5052186;28;20036;-66
2023/09/08 02:58:23;;;;;;;10.02;6.75;;;;;;;17.37;100.00;100781.78;5052637;28;20025;-69
2023/09/08 03:00:50;;;;;;;8.57;5.68;;;;;;;17.25;100.00;100785.97;5053049;28;20126;-65
2023/09/08 03:03:15;;;;;;;8.45;6.07;;;;;;;17.42;100.00;100808.81;5052430;28;20025;-66
2023/09/08 03:05:40;;;;;;;11.15;6.38;;;;;;;17.23;100.00;100790.28;5033788;28;20128;-65
2023/09/08 03:08:06;;;;;;;10.05;6.10;;;;;;;17.25;100.00;100809.47;5052332;28;20131;-69
2023/09/08 03:10:34;;;;;;;13.57;6.78;;;;;;;17.36;100.00;100800.91;5052210;28;20049;-65
2023/09/08 03:13:03;;;;;;;11.85;6.45;;;;;;;16.46;100.00;100802.94;5052243;28;20028;-65
2023/09/08 03:15:29;;;;;;;9.27;6.47;;;;;;;16.29;100.00;100786.09;5052252;28;20476;-68
2023/09/08 03:17:55;;;;;;;9.18;7.10;;;;;;;16.55;100.00;100802.22;5052530;28;20060;-66
2023/09/08 03:20:21;;;;;;;11.75;6.68;;;;;;;16.64;100.00;100809.31;5051795;28;20033;-66
2023/09/08 03:22:46;;;;;;;10.13;6.57;;;;;;;16.51;100.00;100790.00;5052430;28;20028;-65
2023/09/08 03:25:14;;;;;;;11.65;6.32;;;;;;;16.31;100.00;100771.38;5052086;28;20393;-66
2023/09/08 03:27:39;;;;;;;12.30;5.90;;;;;;;16.43;100.00;100781.16;5052127;28;20033;-65
2023/09/08 03:30:06;;;;;;;12.57;6.30;;;;;;;16.40;100.00;100755.00;5036635;28;20032;-68
2023/09/08 03:32:31;;;;;;;9.15;5.85;;;;;;;16.91;100.00;100818.44;5038129;28;20075;-63
2023/09/08 03:34:57;;;;;;;10.63;6.65;;;;;;;17.01;100.00;100815.19;5050532;28;20448;-66
2023/09/08 03:37:22;;;;;;;25.90;6.70;;;;;;;16.98;100.00;100800.38;5051697;28;20028;-64
2023/09/08 03:39:47;;;;;;;9.10;6.25;;;;;;;17.18;100.00;100807.59;5050658;28;20025;-68
2023/09/08 03:42:13;;;;;;;10.93;6.00;;;;;;;17.31;100.00;100798.25;5051217;28;20083;-65
2023/09/08 03:44:38;;;;;;;8.18;6.18;;;;;;;17.29;100.00;100797.34;5050824;28;20075;-65
2023/09/08 03:47:05;;;;;;;11.65;6.50;;;;;;;17.40;100.00;100813.16;5051403;28;20028;-67
2023/09/08 03:49:31;;;;;;;10.35;6.43;;;;;;;17.41;100.00;100807.94;5051090;28;20775;-64
2023/09/08 03:51:58;;;;;;;24.48;7.30;;;;;;;17.22;100.00;100822.47;5051410;28;20060;-66
2023/09/08 03:54:23;;;;;;;10.45;6.38;;;;;;;16.76;100.00;100746.06;5050919;28;20476;-65
2023/09/08 03:56:48;;;;;;;13.35;6.85;;;;;;;17.10;100.00;100810.09;5051236;28;20051;-65
2023/09/08 03:59:14;;;;;;;9.85;6.32;;;;;;;17.21;100.00;100823.31;5051328;28;20814;-64
2023/09/08 04:01:39;;;;;;;9.98;6.97;;;;;;;17.03;100.00;100815.19;5050167;28;20033;-65
2023/09/08 04:04:05;;;;;;;10.60;6.30;;;;;;;17.09;100.00;100821.38;5050471;28;20037;-66
2023/09/08 04:06:30;;;;;;;9.93;6.88;;;;;;;17.19;100.00;100817.19;5050800;28;20036;-65
2023/09/08 04:08:55;;;;;;;13.00;7.35;;;;;;;17.15;100.00;100815.41;5050636;28;20039;-65
2023/09/08 04:11:21;;;;;;;13.43;6.70;;;;;;;16.77;100.00;100740.88;5049833;28;20025;-66
2023/09/08 04:13:46;;;;;;;12.13;6.88;;;;;;;17.28;100.00;100819.97;5050794;28;20487;-65
2023/09/08 04:16:12;;;;;;;13.60;7.60;;;;;;;17.27;100.00;100822.53;5046833;28;20041;-69
2023/09/08 04:18:37;;;;;;;11.77;6.57;;;;;;;17.27;100.00;100827.75;5047380;28;20033;-65
2023/09/08 04:21:02;;;;;;;10.85;7.10;;;;;;;17.32;100.00;100846.09;5044736;28;20024;-65
2023/09/08 04:23:28;;;;;;;10.93;7.43;;;;;;;17.24;100.00;100828.56;5049867;28;20021;-66
2023/09/08 04:25:53;;;;;;;11.63;7.00;;;;;;;17.20;100.00;100832.00;5063161;28;20066;-64
2023/09/08 04:28:19;;;;;;;16.13;7.10;;;;;;;17.20;100.00;100839.81;5070905;28;20024;-65
2023/09/08 04:30:45;;;;;;;9.80;7.13;;;;;;;17.20;100.00;100833.75;5059629;28;20096;-71
2023/09/08 04:33:12;;;;;;;13.02;6.72;;;;;;;17.06;100.00;100834.38;5032410;28;20048;-66
2023/09/08 04:35:37;;;;;;;11.88;7.57;;;;;;;17.09;100.00;100838.78;5051454;28;20033;-66
2023/09/08 04:38:03;;;;;;;16.73;7.68;;;;;;;17.16;100.00;100839.75;5050778;28;20414;-65
2023/09/08 04:40:28;;;;;;;15.98;7.32;;;;;;;17.25;100.00;100838.16;5050556;28;20176;-66
2023/09/08 04:42:54;;;;;;;11.73;7.90;;;;;;;17.29;100.00;100839.94;5051049;28;20022;-65
2023/09/08 04:45:20;;;;;;;10.95;7.38;;;;;;;17.22;100.00;100832.91;5050730;28;20029;-65
2023/09/08 04:47:46;;;;;;;11.15;7.32;;;;;;;16.98;100.00;100776.91;5050528;28;20515;-65
2023/09/08 04:50:13;;;;;;;12.15;7.50;;;;;;;17.43;100.00;100850.63;5050519;28;20029;-65
2023/09/08 04:52:38;;;;;;;13.95;7.50;;;;;;;17.29;100.00;100836.47;5032387;28;20420;-65
2023/09/08 04:55:04;;;;;;;13.30;7.53;;;;;;;17.37;100.00;100839.19;5050761;28;20036;-69
2023/09/08 04:57:30;;;;;;;13.23;7.15;;;;;;;17.41;100.00;100847.09;5029018;28;20057;-65
2023/09/08 04:59:56;;;;;;;11.85;7.75;;;;;;;17.47;100.00;100843.72;5030458;28;20354;-65
2023/09/08 05:02:21;;;;;;;21.38;7.38;;;;;;;17.56;100.00;100837.75;5030676;28;20102;-69
2023/09/08 05:04:46;;;;;;;12.63;7.70;;;;;;;17.58;100.00;100844.75;5030759;28;20025;-64
2023/09/08 05:07:13;;;;;;;12.48;7.43;;;;;;;17.57;100.00;100842.09;5030417;28;20030;-64
2023/09/08 05:09:39;;;;;;;11.27;7.93;;;;;;;17.66;100.00;100844.84;5030345;28;20060;-72
2023/09/08 05:12:05;;;;;;;11.98;8.00;;;;;;;17.71;100.00;100840.56;5030305;28;20029;-66
2023/09/08 05:14:32;;;;;;;13.68;7.70;;;;;;;17.68;100.00;100831.81;5030702;28;20373;-64
2023/09/08 05:16:57;;;;;;;11.70;7.15;;;;;;;17.42;100.00;100843.66;5030388;28;20033;-65
2023/09/08 05:19:23;;;;;;;12.07;7.72;;;;;;;17.43;100.00;100850.63;5029948;28;20465;-66
2023/09/08 05:21:51;;;;;;;14.23;7.57;;;;;;;17.47;100.00;100843.72;5029829;28;20493;-66
2023/09/08 05:24:18;;;;;;;12.38;7.00;;;;;;;17.59;100.00;100851.69;5030358;28;20386;-65
2023/09/08 05:26:43;;;;;;;11.02;7.05;;;;;;;17.54;100.00;100837.72;5029992;28;20032;-64
2023/09/08 05:29:08;;;;;;;11.38;7.55;;;;;;;17.79;100.00;100857.22;5029772;28;20112;-66
2023/09/08 05:31:34;;;;;;;15.05;7.22;;;;;;;17.75;100.00;100858.00;5030196;28;20087;-65
2023/09/08 05:33:59;;;;;;;9.45;6.93;;;;;;;17.80;100.00;100852.88;5029988;28;20030;-65
2023/09/08 05:36:25;;;;;;;10.27;7.50;;;;;;;17.98;100.00;100854.00;5030290;28;20025;-67
2023/09/08 05:38:50;;;;;;;10.80;7.47;;;;;;;17.83;100.00;100803.31;5030298;28;20543;-65
2023/09/08 05:41:15;;;;;;;10.60;7.60;;;;;;;17.92;100.00;100798.16;5030127;28;20134;-65
2023/09/08 05:43:41;;;;;;;9.80;6.95;;;;;;;18.21;100.00;100836.84;5030073;28;20504;-64
2023/09/08 05:46:06;;;;;;;12.15;7.13;;;;;;;18.27;100.00;100838.69;4995073;28;20072;-64
2023/09/08 05:48:32;;;;;;;12.70;7.63;;;;;;;18.31;100.00;100836.97;5030303;28;20096;-70
2023/09/08 05:50:58;;;;;;;13.80;7.80;;;;;;;18.45;100.00;100848.44;5029733;28;20036;-64
2023/09/08 05:53:23;;;;;;;9.80;7.03;;;;;;;18.57;100.00;100863.38;5030134;28;20021;-72
2023/09/08 05:55:49;;;;;;;10.45;7.00;;;;;;;18.52;100.00;100857.25;5029760;28;20417;-65
2023/09/08 05:58:14;;;;;;;10.40;6.90;;;;;;;18.61;100.00;100865.16;5029955;28;20072;-65
2023/09/08 06:00:39;;;;;;;10.20;6.43;;;;;;;18.70;100.00;100870.47;5030114;28;20092;-65
2023/09/08 06:03:05;;;;;;;10.73;6.65;;;;;;;18.76;100.00;100867.06;5030198;28;20030;-66
2023/09/08 06:05:30;;;;;;;11.77;5.72;;;;;;;18.91;100.00;100869.84;5029616;28;20104;-65
2023/09/08 06:07:56;;;;;;;7.72;6.00;;;;;;;18.97;100.00;100870.78;5030330;28;20113;-65
2023/09/08 06:10:21;;;;;;;10.60;6.20;;;;;;;19.02;100.00;100864.69;5030039;28;20108;-64
2023/09/08 06:12:50;;;;;;;9.40;5.30;;;;;;;19.26;97.14;100883.22;5029929;28;20040;-65
2023/09/08 06:15:16;;;;;;;8.03;5.20;;;;;;;19.43;98.61;100870.22;5030112;28;20068;-68
2023/09/08 06:17:41;;;;;;;14.30;5.40;;;;;;;19.62;93.78;100869.50;4994032;28;20463;-70
2023/09/08 06:20:07;;;;;;;6.47;4.90;;;;;;;19.26;92.09;100799.47;5029543;28;20538;-65
2023/09/08 06:22:34;;;;;;;7.47;4.90;;;;;;;19.15;91.37;100786.28;5029410;28;20487;-66
2023/09/08 06:24:59;;;;;;;7.90;4.93;;;;;;;19.70;91.81;100874.78;5030001;28;20067;-70
2023/09/08 06:27:25;;;;;;;9.25;5.05;;;;;;;19.66;92.26;100860.78;5029833;28;20620;-64
2023/09/08 06:29:51;;;;;;;9.27;5.50;;;;;;;19.80;93.77;100876.59;5030282;28;20037;-70
2023/09/08 06:32:16;;;;;;;10.13;5.28;;;;;;;19.83;92.13;100866.16;5029660;28;20039;-65
2023/09/08 06:34:43;;;;;;;6.88;4.90;;;;;;;20.04;91.30;100875.00;5029300;28;20037;-65
2023/09/08 06:37:08;;;;;;;6.32;4.47;;;;;;;20.28;88.89;100879.44;5029648;28;20056;-66
2023/09/08 06:39:34;;;;;;;6.32;4.30;;;;;;;20.29;87.48;100859.38;5031285;28;20485;-66
2023/09/08 06:41:59;;;;;;;10.40;5.35;;;;;;;20.46;89.82;100873.41;5032962;28;20065;-66
2023/09/08 06:44:25;;;;;;;7.00;4.65;;;;;;;20.60;89.03;100873.44;5028852;28;20064;-66
2023/09/08 06:46:51;;;;;;;7.97;4.90;;;;;;;20.74;89.33;100875.25;5024234;28;20458;-66
2023/09/08 06:49:18;;;;;;;9.70;4.70;;;;;;;20.89;85.83;100875.25;5032378;28;20042;-66
2023/09/08 06:51:43;;;;;;;8.38;4.82;;;;;;;21.01;85.93;100887.50;5032765;28;20394;-71
2023/09/08 06:54:09;;;;;;;7.65;4.40;;;;;;;21.29;82.42;100884.88;5033137;28;20041;-65
2023/09/08 06:56:36;;;;;;;10.00;4.70;;;;;;;21.50;82.71;100876.97;5032696;28;20196;-65
2023/09/08 06:59:02;;;;;;;8.00;4.55;;;;;;;21.85;80.78;100882.19;5032619;28;20489;-65
2023/09/08 07:01:28;;;;;;;7.65;4.68;;;;;;;21.94;80.83;100871.63;5032875;28;20036;-65
2023/09/08 07:03:53;;;;;;;8.30;4.03;;;;;;;21.88;78.42;100832.22;5032419;28;20523;-66
2023/09/08 07:06:21;;;;;;;6.20;4.10;;;;;;;21.78;78.30;100815.59;5032906;28;20033;-66
2023/09/08 07:08:49;;;;;;;9.35;4.32;;;;;;;22.33;75.82;100874.97;5023539;28;20047;-65
2023/09/08 07:11:14;;;;;;;8.27;4.00;;;;;;;22.44;76.66;100874.94;5032873;28;20091;-65
2023/09/08 07:13:40;;;;;;;9.00;4.43;;;;;;;22.54;76.32;100883.66;5032366;28;20026;-66
2023/09/08 07:16:05;;;;;;;8.15;3.75;;;;;;;22.78;74.14;100891.38;5025693;28;20473;-66
2023/09/08 07:18:35;;;;;;;8.77;3.65;;;;;;;22.99;73.79;100883.34;5031908;28;20037;-65
2023/09/08 07:21:01;;;;;;;7.35;3.75;;;;;;;23.06;72.06;100877.13;5025122;28;20075;-67
2023/09/08 07:23:27;;;;;;;6.70;3.60;;;;;;;23.06;71.27;100883.28;5031256;28;20037;-64
2023/09/08 07:25:52;;;;;;;5.50;3.53;;;;;;;22.85;68.91;100815.00;5032274;28;20532;-66
2023/09/08 07:28:18;;;;;;;7.20;3.88;;;;;;;23.34;68.80;100862.00;5032480;28;20033;-65
2023/09/08 07:30:43;;;;;;;5.28;3.60;;;;;;;23.56;70.53;100874.94;5032315;28;20033;-66
2023/09/08 07:33:09;;;;;;;8.27;4.10;;;;;;;23.56;68.61;100841.59;5031913;28;20037;-64
2023/09/08 07:35:38;;;;;;;8.75;3.95;;;;;;;23.48;69.55;100813.53;5032705;28;20111;-65
2023/09/08 07:38:05;;;;;;;14.32;5.03;;;;;;;23.65;68.73;100826.53;5025208;28;20087;-65
2023/09/08 07:40:32;;;;;;;7.80;4.40;;;;;;;24.01;72.53;100870.09;5030637;28;20021;-67
2023/09/08 07:42:57;;;;;;;14.15;5.13;;;;;;;24.03;70.68;100855.09;5031929;28;20048;-66
2023/09/08 07:45:23;;;;;;;7.63;4.35;;;;;;;24.08;72.83;100854.19;5032131;28;20026;-65
2023/09/08 07:47:48;;;;;;;12.05;4.53;;;;;;;24.28;68.74;100859.19;5012909;28;20042;-66
2023/09/08 07:50:23;;;;;;;8.88;4.25;;;;;;;23.99;70.62;100790.13;5031213;28;20636;-66
2023/09/08 07:52:50;;;;;;;13.07;5.10;;;;;;;24.38;69.88;100851.09;5032096;28;20033;-67
2023/09/08 07:55:16;;;;;;;10.30;4.72;;;;;;;24.23;67.48;100859.25;5032065;28;20131;-67
2023/09/08 07:57:43;;;;;;;13.43;4.93;;;;;;;24.22;69.07;100860.13;5031600;28;20061;-65
2023/09/08 08:00:12;;;;;;;10.40;4.85;;;;;;;24.32;69.48;100856.47;5025058;28;20029;-65
2023/09/08 08:02:41;;;;;;;18.65;6.30;;;;;;;24.37;69.39;100852.03;5031817;28;20026;-65
2023/09/08 08:05:07;;;;;;;24.42;6.07;;;;;;;24.63;66.61;100853.38;5031689;28;20117;-69
2023/09/08 08:07:32;;;;;;;14.93;5.50;;;;;;;24.83;67.79;100836.41;5031384;28;20021;-65
2023/09/08 08:09:58;;;;;;;32.35;7.72;;;;;;;24.93;65.90;100845.03;5031479;28;20030;-66
2023/09/08 08:12:23;;;;;;;14.80;5.68;;;;;;;25.06;67.44;100837.78;5031312;28;20033;-68
2023/09/08 08:14:49;;;;;;;37.10;9.50;;;;;;;25.10;66.98;100834.19;5031345;28;20488;-67
2023/09/08 08:17:17;;;;;;;16.92;6.03;;;;;;;25.29;69.34;100834.72;5031445;28;20061;-65
2023/09/08 08:19:42;;;;;;;19.63;5.97;;;;;;;25.45;65.65;100830.06;5031322;28;20029;-66
2023/09/08 08:22:08;;;;;;;20.75;6.90;;;;;;;25.55;65.39;100828.97;5031458;28;20040;-67
2023/09/08 08:24:33;;;;;;;7.82;4.22;;;;;;;25.56;63.88;100816.63;5031470;28;20018;-66
2023/09/08 08:27:01;;;;;;;9.15;3.72;;;;;;;25.50;59.55;100825.56;5031061;28;20457;-65
2023/09/08 08:29:27;;;;;;;7.32;3.40;;;;;;;25.77;62.35;100825.88;5030707;28;20048;-66
2023/09/08 08:31:52;;;;;;;7.22;3.55;;;;;;;25.99;62.20;100823.66;5030933;28;20025;-66
2023/09/08 08:34:17;;;;;;;10.02;3.80;;;;;;;25.94;61.88;100764.72;5030997;28;20063;-65
2023/09/08 08:36:43;;;;;;;14.25;5.00;;;;;;;26.39;61.28;100821.94;5030873;28;20079;-66
2023/09/08 08:39:08;;;;;;;11.57;4.20;;;;;;;26.51;59.50;100808.41;5030668;28;20055;-65
2023/09/08 08:41:37;;;;;;;7.97;3.55;;;;;;;26.45;58.31;100812.06;5031015;28;20029;-66
2023/09/08 08:44:05;;;;;;;20.75;5.10;;;;;;;26.09;58.85;100729.13;5030852;28;20397;-66
2023/09/08 08:46:30;;;;;;;16.55;5.18;;;;;;;26.65;57.13;100818.66;5030943;28;20044;-66
2023/09/08 08:48:56;;;;;;;17.35;3.60;;;;;;;26.82;57.21;100809.47;5030603;28;20022;-65
2023/09/08 08:51:24;;;;;;;11.85;4.43;;;;;;;26.99;60.15;100807.25;5030817;28;20025;-66
2023/09/08 08:53:49;;;;;;;9.98;3.80;;;;;;;27.05;55.46;100801.78;5030542;28;20033;-64
2023/09/08 08:56:16;;;;;;;8.25;3.40;;;;;;;27.15;52.74;100789.16;5025058;28;20052;-66
2023/09/08 08:58:42;;;;;;;10.27;3.60;;;;;;;27.09;55.24;100766.38;5030252;28;20033;-64
2023/09/08 09:01:10;;;;;;;12.02;4.18;;;;;;;27.50;53.77;100797.94;5031121;28;20211;-67
2023/09/08 09:03:37;;;;;;;10.27;4.27;;;;;;;27.59;52.95;100800.34;5030347;28;20033;-66
2023/09/08 09:06:04;;;;;;;9.75;3.90;;;;;;;27.70;53.08;100805.34;5030455;28;20184;-65
2023/09/08 09:08:31;;;;;;;10.05;3.40;;;;;;;27.81;55.80;100802.38;5030451;28;20481;-66
2023/09/08 09:10:56;;;;;;;21.23;5.65;;;;;;;27.91;52.90;100806.50;5030180;28;20032;-65
2023/09/08 09:13:23;;;;;;;22.73;4.35;;;;;;;27.57;54.79;100727.06;5030539;28;20029;-66
2023/09/08 09:15:50;;;;;;;12.25;3.58;;;;;;;28.00;50.33;100783.22;5025913;28;20079;-69
2023/09/08 09:18:15;;;;;;;12.02;3.83;;;;;;;28.16;52.22;100805.75;5030223;28;20034;-66
2023/09/08 09:20:52;;;;;;;20.63;4.47;;;;;;;28.24;50.17;100795.78;5030125;28;20036;-66
2023/09/08 09:23:33;;;;;;;11.98;4.05;;;;;;;28.21;47.89;100789.69;5030181;28;20044;-66
2023/09/08 09:26:01;;;;;;;17.52;3.80;;;;;;;27.92;49.80;100779.03;5030469;28;20060;-66
2023/09/08 09:28:29;;;;;;;9.15;3.15;;;;;;;27.72;48.97;100738.97;5030024;28;20030;-64
2023/09/08 09:30:55;;;;;;;12.55;3.88;;;;;;;28.18;48.80;100800.44;5030291;28;20030;-66
2023/09/08 09:33:21;;;;;;;24.40;6.03;;;;;;;28.28;49.10;100793.03;5030233;28;20507;-66
2023/09/08 09:35:49;;;;;;;9.82;3.42;;;;;;;28.35;47.71;100797.22;5030339;28;20542;-65
2023/09/08 09:38:15;;;;;;;43.07;5.53;;;;;;;28.20;48.63;100780.88;5030052;28;20026;-65
2023/09/08 09:40:41;;;;;;;12.35;3.63;;;;;;;28.06;47.00;100786.63;5030339;28;20049;-66
2023/09/08 09:43:08;;;;;;;9.65;3.30;;;;;;;28.02;47.86;100790.22;5030382;28;20469;-72
2023/09/08 09:45:35;;;;;;;11.30;3.30;;;;;;;28.27;47.92;100786.84;5030011;28;20099;-70
2023/09/08 09:48:03;;;;;;;9.52;3.22;;;;;;;28.45;46.26;100781.84;5030202;28;20033;-66
2023/09/08 09:50:38;;;;;;;9.40;3.10;;;;;;;28.74;46.83;100775.63;5030034;28;20116;-66
2023/09/08 09:53:14;;;;;;;11.85;3.60;;;;;;;28.63;47.16;100722.81;5030269;28;20032;-65
2023/09/08 09:55:42;;;;;;;6.47;3.00;;;;;;;29.24;45.34;100774.75;5030311;28;20040;-65
2023/09/08 09:58:10;;;;;;;6.07;3.05;;;;;;;29.12;45.16;100716.72;5030245;28;20056;-70
2023/09/08 10:00:37;;;;;;;6.30;3.35;;;;;;;29.61;44.21;100760.13;5029867;28;20026;-65
2023/09/08 10:03:04;;;;;;;5.93;3.00;;;;;;;29.69;44.46;100758.00;5029660;28;20485;-65
2023/09/08 10:05:29;;;;;;;10.80;3.47;;;;;;;29.74;46.35;100759.66;5030039;28;20051;-65
2023/09/08 10:07:55;;;;;;;7.03;2.92;;;;;;;29.76;45.46;100748.03;5029914;28;20108;-66
2023/09/08 10:10:21;;;;;;;14.02;3.88;;;;;;;29.83;43.24;100760.16;5029807;28;20033;-65
2023/09/08 10:12:55;;;;;;;16.92;5.90;;;;;;;29.93;44.17;100749.19;4994837;28;20107;-66
2023/09/08 10:15:23;;;;;;;6.93;3.15;;;;;;;29.69;42.99;100752.69;5032901;28;20034;-65
2023/09/08 10:17:57;;;;;;;10.18;3.30;;;;;;;29.70;45.11;100749.13;5024382;28;20032;-66
2023/09/08 10:20:23;;;;;;;7.63;3.15;;;;;;;29.46;43.32;100739.41;5033375;28;20033;-65
2023/09/08 10:22:54;;;;;;;7.13;3.10;;;;;;;29.31;44.03;100743.50;5033413;28;20411;-65
2023/09/08 10:25:22;;;;;;;12.98;3.90;;;;;;;28.82;44.03;100741.66;5033651;28;20035;-64
2023/09/08 10:27:48;;;;;;;23.20;5.95;;;;;;;28.91;43.32;100742.25;5024276;28;20559;-65
2023/09/08 10:30:16;;;;;;;30.90;4.80;;;;;;;29.15;46.07;100736.06;5033296;28;20112;-66
2023/09/08 10:32:43;;;;;;;11.50;3.50;;;;;;;28.54;45.49;100631.03;5033372;28;20083;-70
2023/09/08 10:35:29;;;;;;;11.85;3.83;;;;;;;29.24;45.38;100742.00;5030632;28;20555;-65
2023/09/08 10:38:23;;;;;;;16.55;4.78;;;;;;;29.09;43.32;100730.97;4990819;28;20041;-64
2023/09/08 10:40:48;;;;;;;35.33;5.20;;;;;;;29.16;43.73;100724.53;5022693;28;20042;-64
2023/09/08 10:43:13;;;;;;;7.32;3.35;;;;;;;29.26;45.18;100717.06;5030841;28;20044;-64
2023/09/08 10:45:41;;;;;;;7.22;3.53;;;;;;;29.23;43.08;100726.94;5030462;28;20032;-65
2023/09/08 10:48:07;;;;;;;7.13;3.38;;;;;;;29.14;45.71;100707.75;5030707;28;20617;-70
2023/09/08 10:50:35;;;;;;;28.08;5.57;;;;;;;28.95;44.86;100725.28;5030420;28;20030;-71
2023/09/08 10:53:06;;;;;;;9.05;3.47;;;;;;;28.81;45.53;100716.03;5030483;28;20192;-65
2023/09/08 10:55:47;;;;;;;12.05;4.47;;;;;;;28.81;46.96;100724.00;5030442;28;20033;-70
2023/09/08 10:58:18;;;;;;;22.90;5.55;;;;;;;28.91;45.83;100723.66;5030402;28;20084;-65
2023/09/08 11:00:54;;;;;;;31.75;6.75;;;;;;;29.02;45.63;100724.16;5030184;28;20475;-65
2023/09/08 11:03:27;;;;;;;12.30;3.85;;;;;;;29.17;45.86;100718.28;5030381;28;20029;-65
2023/09/08 11:05:53;;;;;;;6.43;3.50;;;;;;;28.95;47.25;100706.69;5030454;28;20128;-66
2023/09/08 11:08:18;;;;;;;18.48;4.35;;;;;;;29.19;48.69;100710.25;4977550;28;20180;-65
2023/09/08 11:10:44;;;;;;;7.38;3.17;;;;;;;29.11;44.71;100644.06;5030193;28;20040;-65
2023/09/08 11:13:10;;;;;;;26.30;4.80;;;;;;;29.48;44.97;100701.19;5031642;28;20144;-65
2023/09/08 11:15:37;;;;;;;18.60;4.50;;;;;;;29.13;43.94;100636.03;5030123;28;20527;-65